Time;durP1;ratioP1;P1;durP2;ratioP2;P2;SDS_P1;SDS_P2;PMS_P1;PMS_P2;Temp;Humidity;BMP_temperature;BMP_pressure;BME280_temperature;BME280_humidity;BME280_pressure;Samples;Min_cycle;Max_cycle;Signal;HPM_P1;HPM_P2
2022/05/21 00:00:42;;;;;;;9.50;6.68;;;15.90;57.70;;;;;;5024783;28;20049;-46
2022/05/21 00:03:11;;;;;;;8.93;6.40;;;15.90;57.90;;;;;;5021529;28;20083;-49
2022/05/21 00:05:39;;;;;;;12.43;6.82;;;15.80;58.00;;;;;;5024643;28;20056;-46
2022/05/21 00:08:09;;;;;;;12.98;6.90;;;15.80;58.10;;;;;;5024693;28;20057;-45
2022/05/21 00:10:38;;;;;;;13.82;6.45;;;15.70;58.20;;;;;;5024898;28;20060;-46
2022/05/21 00:13:06;;;;;;;9.55;7.00;;;15.70;58.20;;;;;;5023481;28;20049;-48
2022/05/21 00:15:37;;;;;;;9.82;6.65;;;15.60;58.30;;;;;;5024549;28;20041;-46
2022/05/21 00:18:05;;;;;;;10.32;5.82;;;15.60;58.30;;;;;;5022767;28;20117;-46
2022/05/21 00:20:50;;;;;;;10.30;6.35;;;15.60;58.40;;;;;;5021529;28;20144;-47
2022/05/21 00:23:21;;;;;;;9.38;6.63;;;15.60;58.40;;;;;;5022911;28;20057;-45
2022/05/21 00:25:52;;;;;;;8.77;5.93;;;15.60;58.40;;;;;;5023215;28;20057;-45
2022/05/21 00:28:20;;;;;;;8.60;6.28;;;15.60;58.40;;;;;;5024666;28;20057;-46
2022/05/21 00:30:49;;;;;;;9.88;6.07;;;15.60;58.40;;;;;;5024512;28;20049;-46
2022/05/21 00:33:17;;;;;;;9.05;6.28;;;15.60;58.20;;;;;;5022040;28;20054;-46
2022/05/21 00:35:47;;;;;;;11.82;6.80;;;15.60;58.30;;;;;;5023181;28;20792;-47
2022/05/21 00:38:14;;;;;;;8.32;5.60;;;15.60;58.40;;;;;;5022907;28;20065;-45
2022/05/21 00:40:42;;;;;;;8.32;5.88;;;15.60;58.40;;;;;;5024045;28;20060;-48
2022/05/21 00:43:33;;;;;;;16.73;7.38;;;15.60;58.40;;;;;;5022402;28;20410;-45
2022/05/21 00:46:02;;;;;;;8.23;5.43;;;15.60;58.50;;;;;;5024804;28;20061;-46
2022/05/21 00:48:30;;;;;;;7.78;5.47;;;15.60;58.40;;;;;;5023671;28;20053;-47
2022/05/21 00:50:59;;;;;;;9.93;5.85;;;15.70;58.50;;;;;;5024358;28;20093;-46
2022/05/21 00:53:27;;;;;;;5.80;4.65;;;15.60;58.40;;;;;;5023528;28;20058;-45
2022/05/21 00:55:55;;;;;;;9.35;4.90;;;15.60;58.40;;;;;;5024114;28;20064;-45
2022/05/21 01:01:13;;;;;;;9.68;5.68;;;15.70;58.30;;;;;;5023658;28;20065;-46
2022/05/21 01:03:42;;;;;;;7.93;5.55;;;15.70;58.20;;;;;;5021831;28;20057;-46
2022/05/21 01:06:10;;;;;;;6.93;5.10;;;15.60;58.10;;;;;;5021509;28;20432;-47
2022/05/21 01:08:38;;;;;;;11.55;5.85;;;15.70;58.20;;;;;;5023461;28;20053;-47
2022/05/21 01:11:11;;;;;;;6.03;4.72;;;15.60;58.10;;;;;;5023011;28;20053;-45
2022/05/21 01:13:41;;;;;;;8.17;5.40;;;15.60;58.10;;;;;;5024070;28;20053;-47
2022/05/21 01:16:09;;;;;;;6.10;4.90;;;15.60;58.00;;;;;;5024180;28;20050;-47
2022/05/21 01:18:38;;;;;;;8.02;5.63;;;15.70;58.10;;;;;;5022397;28;20060;-48
2022/05/21 01:21:07;;;;;;;7.15;4.75;;;15.60;58.10;;;;;;5022106;28;20564;-49
2022/05/21 01:23:35;;;;;;;7.78;5.40;;;15.70;58.10;;;;;;5022838;28;20049;-49
2022/05/21 01:26:15;;;;;;;7.78;5.38;;;15.70;58.00;;;;;;5022422;28;20139;-46
2022/05/21 01:28:43;;;;;;;7.53;5.55;;;15.70;57.90;;;;;;5022695;28;20064;-47
2022/05/21 01:31:10;;;;;;;7.03;5.15;;;15.60;57.80;;;;;;5023175;28;20397;-50
2022/05/21 01:33:44;;;;;;;8.68;5.30;;;15.60;57.80;;;;;;5019591;28;20417;-47
2022/05/21 01:36:13;;;;;;;9.43;5.38;;;15.60;57.80;;;;;;5022524;28;20509;-45
2022/05/21 01:38:43;;;;;;;7.82;5.45;;;15.60;57.70;;;;;;5022371;28;20412;-46
2022/05/21 01:41:11;;;;;;;8.48;5.50;;;15.60;57.70;;;;;;5022696;28;20057;-45
2022/05/21 01:46:25;;;;;;;6.47;4.95;;;15.60;57.60;;;;;;5024531;28;20064;-47
2022/05/21 01:48:52;;;;;;;5.65;4.35;;;15.60;57.60;;;;;;5019305;28;20061;-45
2022/05/21 01:51:20;;;;;;;8.20;4.82;;;15.60;57.60;;;;;;5021277;28;20417;-46
2022/05/21 01:53:49;;;;;;;6.53;4.68;;;15.60;58.10;;;;;;5021147;28;20057;-46
2022/05/21 01:56:17;;;;;;;7.63;5.32;;;15.50;57.60;;;;;;5023100;28;20061;-45
2022/05/21 01:58:45;;;;;;;5.40;4.43;;;15.50;57.60;;;;;;5022365;28;20068;-50
2022/05/21 02:01:13;;;;;;;6.85;4.85;;;15.50;57.60;;;;;;5020976;28;20527;-47
2022/05/21 02:03:41;;;;;;;6.88;5.25;;;15.50;57.50;;;;;;5020771;28;20053;-47
2022/05/21 02:06:09;;;;;;;7.00;3.92;;;15.50;57.50;;;;;;5021648;28;20057;-46
2022/05/21 02:08:36;;;;;;;6.90;4.28;;;15.50;57.50;;;;;;5024828;28;20060;-48
2022/05/21 02:11:05;;;;;;;5.47;4.10;;;15.40;57.40;;;;;;5022651;28;20412;-46
2022/05/21 02:13:34;;;;;;;6.82;3.53;;;15.40;57.30;;;;;;5022291;28;20053;-45
2022/05/21 02:16:02;;;;;;;4.68;3.47;;;15.40;57.30;;;;;;5020564;28;20053;-46
2022/05/21 02:18:30;;;;;;;6.43;3.47;;;15.40;57.40;;;;;;5020484;28;20080;-47
2022/05/21 02:20:58;;;;;;;8.57;3.33;;;15.30;57.30;;;;;;5020409;28;20053;-46
2022/05/21 02:23:25;;;;;;;5.75;2.80;;;15.40;57.40;;;;;;5042205;28;20045;-50
2022/05/21 02:25:53;;;;;;;3.88;2.72;;;15.30;57.30;;;;;;5038707;28;20052;-47
2022/05/21 02:28:22;;;;;;;4.88;2.60;;;15.30;57.20;;;;;;5041605;28;20068;-45
2022/05/21 02:30:49;;;;;;;4.72;2.25;;;15.30;57.20;;;;;;5040100;28;20056;-45
2022/05/21 02:33:17;;;;;;;6.45;2.10;;;15.30;57.10;;;;;;5040596;28;20054;-47
2022/05/21 02:35:45;;;;;;;7.30;2.33;;;15.30;57.10;;;;;;5041834;28;20053;-47
2022/05/21 02:40:57;;;;;;;4.50;1.98;;;15.20;56.90;;;;;;5047900;28;20052;-45
2022/05/21 02:43:29;;;;;;;5.10;2.00;;;15.20;56.90;;;;;;5042904;28;20045;-46
2022/05/21 02:45:56;;;;;;;2.22;1.60;;;15.20;56.90;;;;;;5042726;28;20060;-47
2022/05/21 02:48:27;;;;;;;2.40;1.30;;;15.20;56.90;;;;;;5041770;28;20049;-47
2022/05/21 02:50:55;;;;;;;4.20;1.63;;;15.20;56.90;;;;;;5042263;28;20056;-45
2022/05/21 02:53:23;;;;;;;5.38;1.70;;;15.20;56.80;;;;;;5042092;28;20056;-45
2022/05/21 02:55:55;;;;;;;2.22;1.30;;;15.20;56.80;;;;;;5040544;28;20687;-48
2022/05/21 02:58:23;;;;;;;4.50;1.73;;;15.20;56.80;;;;;;5041777;28;20044;-46
2022/05/21 03:00:52;;;;;;;6.45;2.33;;;15.20;56.80;;;;;;5044704;28;20057;-47
2022/05/21 03:03:19;;;;;;;5.50;1.52;;;15.20;56.80;;;;;;5045068;28;20496;-46
2022/05/21 03:05:47;;;;;;;5.63;1.48;;;15.20;56.90;;;;;;5045674;28;20052;-48
2022/05/21 03:11:05;;;;;;;4.60;1.30;;;15.20;56.90;;;;;;5007190;28;20042;-47
2022/05/21 03:13:34;;;;;;;6.25;1.30;;;15.20;56.80;;;;;;5044389;28;20072;-48
2022/05/21 03:16:03;;;;;;;5.65;1.20;;;15.20;56.70;;;;;;5045565;28;20404;-48
2022/05/21 03:18:31;;;;;;;4.28;1.00;;;15.20;56.90;;;;;;5044091;28;20278;-52
2022/05/21 03:20:58;;;;;;;2.85;1.10;;;15.30;56.90;;;;;;5045958;28;20063;-46
2022/05/21 03:23:26;;;;;;;9.15;1.30;;;15.30;56.80;;;;;;5046672;28;20076;-48
2022/05/21 03:25:53;;;;;;;5.07;1.17;;;15.30;56.60;;;;;;5045389;28;20065;-48
2022/05/21 03:28:21;;;;;;;2.88;1.10;;;15.30;56.40;;;;;;5044894;28;20068;-45
2022/05/21 03:30:49;;;;;;;4.20;1.25;;;15.30;56.20;;;;;;5045918;28;20909;-45
2022/05/21 03:33:18;;;;;;;3.47;1.45;;;15.30;56.10;;;;;;5044437;28;20049;-45
2022/05/21 03:35:46;;;;;;;3.80;0.82;;;15.30;56.00;;;;;;5044963;28;20049;-46
2022/05/21 03:38:14;;;;;;;4.40;1.10;;;15.30;56.10;;;;;;5043837;28;20060;-48
2022/05/21 03:40:42;;;;;;;5.43;1.05;;;15.30;56.00;;;;;;5045201;28;20052;-50
2022/05/21 03:43:09;;;;;;;2.33;0.98;;;15.30;56.00;;;;;;5043649;28;20477;-45
2022/05/21 03:45:37;;;;;;;7.70;1.58;;;15.30;56.00;;;;;;5046496;28;20052;-45
2022/05/21 03:48:06;;;;;;;6.72;1.02;;;15.30;56.00;;;;;;5043692;28;20053;-46
2022/05/21 03:50:35;;;;;;;3.58;1.00;;;15.20;56.00;;;;;;5044670;28;20504;-47
2022/05/21 03:53:03;;;;;;;5.63;1.15;;;15.20;56.00;;;;;;5043972;28;20060;-49
2022/05/21 03:55:31;;;;;;;5.18;1.20;;;15.20;56.00;;;;;;5045043;28;20056;-48
2022/05/21 03:57:58;;;;;;;5.88;1.00;;;15.20;56.00;;;;;;5044832;28;20064;-53
2022/05/21 04:00:25;;;;;;;6.15;1.40;;;15.20;56.10;;;;;;5043734;28;20051;-46
2022/05/21 04:02:53;;;;;;;3.90;1.00;;;15.20;56.00;;;;;;5042853;28;20053;-47
2022/05/21 04:05:21;;;;;;;2.40;0.95;;;15.20;56.10;;;;;;5044612;28;20049;-47
2022/05/21 04:07:50;;;;;;;11.73;1.38;;;15.20;56.40;;;;;;5044427;28;20535;-45
2022/05/21 04:10:20;;;;;;;5.65;1.50;;;15.20;56.20;;;;;;5044761;28;20527;-47
2022/05/21 04:12:47;;;;;;;4.30;1.17;;;15.20;56.20;;;;;;5044675;28;20052;-49
2022/05/21 04:15:15;;;;;;;4.20;1.20;;;15.20;56.20;;;;;;5043582;28;20053;-48
2022/05/21 04:17:43;;;;;;;5.35;1.40;;;15.20;56.20;;;;;;5041337;28;20052;-49
2022/05/21 04:20:15;;;;;;;7.30;1.33;;;15.20;56.30;;;;;;5044281;28;20056;-45
2022/05/21 04:22:42;;;;;;;5.10;0.73;;;15.10;56.20;;;;;;5043690;28;20488;-45
2022/05/21 04:25:12;;;;;;;8.25;1.17;;;15.10;56.30;;;;;;5043217;28;20048;-45
2022/05/21 04:27:40;;;;;;;4.85;1.30;;;15.20;56.90;;;;;;5044151;28;20057;-46
2022/05/21 04:30:11;;;;;;;4.97;1.08;;;15.20;56.50;;;;;;5044630;28;20063;-45
2022/05/21 04:32:39;;;;;;;5.28;1.10;;;15.20;56.50;;;;;;5040978;28;20053;-46
2022/05/21 04:35:08;;;;;;;2.58;0.88;;;15.20;56.50;;;;;;5041905;28;20071;-45
2022/05/21 04:37:36;;;;;;;3.58;0.98;;;15.20;56.50;;;;;;5042360;28;20082;-45
2022/05/21 04:40:06;;;;;;;4.00;0.90;;;15.20;56.50;;;;;;5043010;28;20056;-46
2022/05/21 04:42:36;;;;;;;8.75;1.10;;;15.20;56.60;;;;;;5043159;28;20053;-46
2022/05/21 04:45:09;;;;;;;8.20;1.10;;;15.20;56.50;;;;;;5044384;28;20544;-50
2022/05/21 04:47:37;;;;;;;11.65;1.80;;;15.20;56.50;;;;;;5026281;28;20049;-48
2022/05/21 04:50:07;;;;;;;12.48;1.30;;;15.30;56.50;;;;;;5043168;28;20064;-46
2022/05/21 04:52:35;;;;;;;3.60;1.05;;;15.30;56.50;;;;;;5043631;28;20507;-45
2022/05/21 04:55:03;;;;;;;6.85;1.08;;;15.30;56.50;;;;;;5042834;28;20049;-45
2022/05/21 04:57:31;;;;;;;3.00;0.88;;;15.30;56.50;;;;;;5045993;28;20067;-45
2022/05/21 04:59:59;;;;;;;9.75;1.20;;;15.30;56.50;;;;;;5043940;28;20052;-45
2022/05/21 05:02:28;;;;;;;3.75;1.17;;;15.30;56.50;;;;;;5041463;28;20060;-46
2022/05/21 05:04:55;;;;;;;2.45;1.08;;;15.30;56.50;;;;;;5044183;28;20048;-45
2022/05/21 05:07:24;;;;;;;4.18;1.08;;;15.40;56.50;;;;;;5043414;28;20057;-49
2022/05/21 05:09:52;;;;;;;9.98;1.05;;;15.40;56.40;;;;;;5042433;28;20061;-45
2022/05/21 05:12:20;;;;;;;5.38;0.90;;;15.40;56.50;;;;;;5042115;28;20044;-47
2022/05/21 05:14:49;;;;;;;7.32;1.08;;;15.50;56.60;;;;;;5043495;28;20056;-45
2022/05/21 05:17:19;;;;;;;7.45;1.42;;;15.50;56.60;;;;;;5043130;28;20052;-47
2022/05/21 05:19:47;;;;;;;5.75;0.88;;;15.50;56.50;;;;;;5041733;28;20049;-49
2022/05/21 05:22:16;;;;;;;1.77;0.60;;;15.60;56.60;;;;;;5041647;28;20061;-49
2022/05/21 05:24:44;;;;;;;3.75;0.90;;;15.60;56.60;;;;;;5044917;28;20049;-46
2022/05/21 05:27:12;;;;;;;5.43;1.20;;;15.70;56.60;;;;;;5042700;28;20067;-52
2022/05/21 05:29:40;;;;;;;8.55;2.65;;;15.80;56.50;;;;;;5044115;28;20484;-46
2022/05/21 05:32:09;;;;;;;11.90;4.38;;;15.80;56.40;;;;;;5042614;28;20053;-46
2022/05/21 05:34:38;;;;;;;6.53;1.70;;;15.90;56.20;;;;;;5043605;28;20057;-45
2022/05/21 05:37:07;;;;;;;4.32;1.05;;;16.00;56.10;;;;;;5043922;28;20052;-45
2022/05/21 05:39:37;;;;;;;5.65;1.00;;;16.00;56.00;;;;;;5044254;28;20060;-47
2022/05/21 05:42:06;;;;;;;3.10;1.00;;;16.00;55.80;;;;;;5042851;28;20503;-48
2022/05/21 05:44:33;;;;;;;5.47;0.90;;;16.10;55.90;;;;;;5042294;28;20567;-49
2022/05/21 05:47:08;;;;;;;3.85;0.93;;;16.10;56.00;;;;;;5043752;28;20053;-53
2022/05/21 05:49:37;;;;;;;5.55;1.00;;;16.20;56.00;;;;;;5044016;28;20500;-45
2022/05/21 05:52:06;;;;;;;4.88;1.05;;;16.20;55.70;;;;;;5042898;28;20504;-50
2022/05/21 05:54:34;;;;;;;4.82;1.20;;;16.30;55.60;;;;;;5045035;28;20055;-45
2022/05/21 05:57:02;;;;;;;6.35;1.17;;;16.40;56.00;;;;;;5042745;28;20504;-47
2022/05/21 06:05:00;;;;;;;14.05;1.30;;;16.50;55.60;;;;;;5051509;28;20068;-45
2022/05/21 06:07:28;;;;;;;5.40;1.17;;;16.60;55.70;;;;;;5043842;28;20053;-46
2022/05/21 06:10:02;;;;;;;7.05;1.33;;;16.60;55.50;;;;;;5040671;28;20547;-50
2022/05/21 06:12:29;;;;;;;12.48;1.60;;;16.60;55.10;;;;;;5042509;28;20504;-51
2022/05/21 06:14:57;;;;;;;6.90;1.58;;;16.70;54.70;;;;;;5043556;28;20059;-49
2022/05/21 06:17:25;;;;;;;5.65;1.13;;;16.70;54.80;;;;;;5043787;28;20508;-51
2022/05/21 06:19:52;;;;;;;4.40;1.20;;;16.70;54.80;;;;;;5043517;28;20060;-46
2022/05/21 06:22:21;;;;;;;7.72;1.38;;;16.70;55.00;;;;;;5040870;28;20061;-46
2022/05/21 06:24:50;;;;;;;5.40;1.15;;;16.80;54.90;;;;;;5044445;28;20060;-45
2022/05/21 06:27:17;;;;;;;7.43;1.30;;;16.80;55.00;;;;;;5042354;28;20053;-47
2022/05/21 06:29:46;;;;;;;9.68;1.70;;;16.80;55.20;;;;;;5042626;28;20056;-50
2022/05/21 06:32:14;;;;;;;8.30;1.85;;;16.70;54.90;;;;;;5042195;28;20470;-50
2022/05/21 06:34:41;;;;;;;12.57;1.55;;;16.70;55.00;;;;;;5039844;28;20049;-46
2022/05/21 06:37:11;;;;;;;7.43;1.65;;;16.80;55.20;;;;;;5043584;28;20508;-51
2022/05/21 06:39:44;;;;;;;6.63;2.00;;;16.80;54.80;;;;;;5043020;28;20416;-50
2022/05/21 06:42:13;;;;;;;10.53;2.10;;;16.80;55.00;;;;;;5043969;28;20048;-47
2022/05/21 06:44:42;;;;;;;10.70;2.30;;;16.80;54.90;;;;;;5043455;28;20495;-51
2022/05/21 06:47:11;;;;;;;6.53;1.98;;;16.80;54.70;;;;;;5042257;28;20061;-48
2022/05/21 06:49:42;;;;;;;9.57;2.28;;;16.80;54.80;;;;;;5041306;28;20052;-50
2022/05/21 06:52:12;;;;;;;13.93;3.00;;;16.80;55.20;;;;;;5042544;28;20064;-49
2022/05/21 06:54:41;;;;;;;9.55;3.00;;;16.90;54.90;;;;;;5043775;28;20095;-44
2022/05/21 06:57:10;;;;;;;14.02;3.22;;;16.90;54.90;;;;;;5040112;28;20583;-48
2022/05/21 06:59:38;;;;;;;12.68;3.40;;;16.90;54.90;;;;;;5043198;28;20053;-49
2022/05/21 07:02:06;;;;;;;12.25;3.85;;;16.90;54.80;;;;;;5040036;28;20053;-45
2022/05/21 07:07:34;;;;;;;11.43;4.13;;;16.90;54.40;;;;;;5048201;28;20064;-50
2022/05/21 07:10:06;;;;;;;7.30;2.95;;;16.90;54.90;;;;;;5040947;28;20408;-47
2022/05/21 07:12:35;;;;;;;10.63;3.10;;;17.00;54.80;;;;;;5040658;28;20064;-52
2022/05/21 07:15:05;;;;;;;10.80;3.58;;;17.00;54.70;;;;;;5041799;28;20048;-46
2022/05/21 07:17:33;;;;;;;10.07;3.60;;;17.00;54.40;;;;;;5042546;28;20065;-47
2022/05/21 07:20:03;;;;;;;19.88;3.53;;;17.10;54.20;;;;;;5041779;28;20507;-50
2022/05/21 07:22:31;;;;;;;11.70;3.47;;;17.10;53.70;;;;;;5041372;28;20056;-50
2022/05/21 07:24:59;;;;;;;10.07;3.72;;;17.10;54.00;;;;;;5041359;28;20416;-51
2022/05/21 07:27:28;;;;;;;11.88;2.63;;;17.20;53.80;;;;;;5042159;28;20424;-49
2022/05/21 07:29:56;;;;;;;11.30;2.47;;;17.20;54.10;;;;;;5041782;28;20055;-50
2022/05/21 07:32:27;;;;;;;10.00;2.22;;;17.20;53.80;;;;;;5041436;28;20052;-47
2022/05/21 07:34:58;;;;;;;11.52;2.13;;;17.30;53.80;;;;;;5043150;28;20052;-47
2022/05/21 07:37:26;;;;;;;11.93;2.10;;;17.30;53.90;;;;;;5044965;28;20049;-48
2022/05/21 07:39:53;;;;;;;12.32;3.00;;;17.30;53.90;;;;;;5042522;28;20052;-48
2022/05/21 07:42:21;;;;;;;5.63;1.70;;;17.40;53.70;;;;;;5041643;28;20421;-46
2022/05/21 07:44:50;;;;;;;10.10;1.92;;;17.40;53.40;;;;;;5043257;28;20408;-52
2022/05/21 07:47:22;;;;;;;6.40;1.58;;;17.40;53.40;;;;;;5044568;28;20523;-45
2022/05/21 07:49:51;;;;;;;8.32;1.58;;;17.40;53.50;;;;;;5047083;28;20053;-52
2022/05/21 07:52:19;;;;;;;7.80;1.95;;;17.50;53.40;;;;;;5044788;28;20072;-48
2022/05/21 07:54:46;;;;;;;9.18;1.67;;;17.50;53.70;;;;;;5048094;28;20045;-45
2022/05/21 07:57:15;;;;;;;9.27;2.00;;;17.60;54.00;;;;;;5046560;28;20643;-48
2022/05/21 07:59:42;;;;;;;11.02;2.30;;;17.70;53.50;;;;;;5045604;28;20064;-50
2022/05/21 08:02:15;;;;;;;9.63;1.80;;;17.70;53.20;;;;;;5043364;28;20053;-50
2022/05/21 08:04:43;;;;;;;6.07;1.50;;;17.70;52.60;;;;;;5045896;28;20404;-47
2022/05/21 08:07:10;;;;;;;6.03;1.60;;;17.80;52.90;;;;;;5045212;28;20053;-49
2022/05/21 08:09:38;;;;;;;7.72;1.70;;;17.90;52.90;;;;;;5045940;28;20048;-46
2022/05/21 08:12:08;;;;;;;7.70;1.75;;;17.90;52.70;;;;;;5043154;28;20056;-48
2022/05/21 08:14:35;;;;;;;9.45;2.25;;;17.90;52.30;;;;;;5043292;28;20056;-46
2022/05/21 08:17:03;;;;;;;5.82;1.92;;;18.00;52.40;;;;;;5042446;28;20064;-46
2022/05/21 08:19:32;;;;;;;9.82;1.92;;;18.00;52.60;;;;;;5045631;28;20052;-50
2022/05/21 08:26:56;;;;;;;10.30;2.70;;;18.10;52.20;;;;;;5043820;28;20056;-53
2022/05/21 08:27:31;;;;;;;9.82;2.15;;;18.10;51.70;;;;;;5043911;28;20059;-50
2022/05/21 08:29:59;;;;;;;8.70;1.65;;;18.20;51.10;;;;;;5044158;28;20053;-50
2022/05/21 08:32:26;;;;;;;10.50;1.75;;;18.20;51.40;;;;;;5043320;28;20061;-51
2022/05/21 08:34:55;;;;;;;7.93;1.65;;;18.30;51.70;;;;;;5045325;28;20056;-51
2022/05/21 08:37:22;;;;;;;12.48;1.77;;;18.30;51.90;;;;;;5045035;28;20412;-49
2022/05/21 08:39:50;;;;;;;7.25;1.77;;;18.40;51.30;;;;;;5043196;28;20061;-51
2022/05/21 08:42:22;;;;;;;8.50;2.58;;;18.40;51.10;;;;;;5044323;28;20523;-53
2022/05/21 08:44:54;;;;;;;6.63;1.75;;;18.40;50.70;;;;;;5041783;28;20500;-49
2022/05/21 08:47:26;;;;;;;6.82;1.73;;;18.40;50.60;;;;;;5042303;28;21975;-47
2022/05/21 08:49:59;;;;;;;10.50;2.30;;;18.40;50.60;;;;;;5045040;28;20059;-48
2022/05/21 08:52:32;;;;;;;5.90;1.75;;;18.30;50.20;;;;;;5043624;28;20061;-50
2022/05/21 08:55:04;;;;;;;11.55;2.20;;;18.30;51.10;;;;;;5044591;28;20048;-50
2022/05/21 08:57:40;;;;;;;8.85;1.83;;;18.40;51.30;;;;;;5043071;28;20053;-53
2022/05/21 09:00:11;;;;;;;10.25;1.90;;;18.40;51.20;;;;;;5041935;28;20044;-48
2022/05/21 09:02:39;;;;;;;15.90;2.45;;;18.40;50.20;;;;;;5041737;28;20489;-52
2022/05/21 09:05:12;;;;;;;5.53;1.40;;;18.40;49.50;;;;;;5043169;28;20049;-47
2022/05/21 09:07:50;;;;;;;5.78;1.60;;;18.50;50.10;;;;;;5042897;28;20712;-49
2022/05/21 09:10:43;;;;;;;6.80;1.27;;;18.50;51.10;;;;;;5043487;28;20435;-49
2022/05/21 09:13:16;;;;;;;6.65;1.60;;;18.60;51.20;;;;;;5041740;28;20057;-49
2022/05/21 09:18:34;;;;;;;4.57;1.40;;;18.90;50.00;;;;;;5042276;28;20514;-52
2022/05/21 09:21:09;;;;;;;4.43;1.50;;;18.90;49.30;;;;;;5043838;28;20053;-52
2022/05/21 09:23:55;;;;;;;7.78;1.88;;;18.90;48.60;;;;;;5042544;28;20079;-47
2022/05/21 09:26:24;;;;;;;8.23;2.42;;;18.90;49.10;;;;;;5043078;28;20060;-47
2022/05/21 09:28:52;;;;;;;7.57;1.90;;;18.90;48.10;;;;;;5043138;28;20065;-47
2022/05/21 09:31:29;;;;;;;5.15;1.67;;;18.90;48.80;;;;;;5042585;28;20618;-45
2022/05/21 09:34:13;;;;;;;8.55;1.67;;;18.90;49.10;;;;;;5043293;28;20089;-46
2022/05/21 09:36:42;;;;;;;5.45;1.63;;;18.90;48.80;;;;;;5042916;28;20582;-48
2022/05/21 09:39:09;;;;;;;7.00;2.08;;;19.00;49.20;;;;;;5043961;28;20063;-49
2022/05/21 09:41:37;;;;;;;9.38;1.58;;;19.10;48.70;;;;;;5042185;28;20056;-50
2022/05/21 09:47:11;;;;;;;6.80;1.88;;;19.10;48.40;;;;;;5049944;28;20047;-52
2022/05/21 09:49:42;;;;;;;6.70;1.85;;;19.10;48.40;;;;;;5044767;28;21231;-52
2022/05/21 09:52:23;;;;;;;10.70;1.60;;;19.00;48.00;;;;;;5045922;28;20048;-50
2022/05/21 09:54:51;;;;;;;8.73;1.80;;;19.00;48.70;;;;;;5044420;28;20049;-50
2022/05/21 09:57:23;;;;;;;11.93;2.92;;;18.90;49.70;;;;;;5044699;28;20845;-50
2022/05/21 10:00:04;;;;;;;14.52;5.95;;;18.90;50.30;;;;;;5044704;28;20057;-50
2022/05/21 10:02:40;;;;;;;9.20;3.17;;;18.80;49.80;;;;;;5042810;28;20056;-51
2022/05/21 10:05:12;;;;;;;6.57;1.75;;;18.80;50.70;;;;;;5045037;28;20060;-47
2022/05/21 10:13:22;;;;;;;6.97;1.67;;;18.90;50.40;;;;;;5049519;28;20419;-50
2022/05/21 10:15:54;;;;;;;5.57;2.03;;;19.00;50.90;;;;;;5042943;28;20055;-47
2022/05/21 10:18:29;;;;;;;6.85;1.58;;;19.10;49.70;;;;;;5041569;28;20411;-50
2022/05/21 10:21:03;;;;;;;5.07;1.33;;;19.10;49.20;;;;;;5042512;28;20053;-54
2022/05/21 10:23:40;;;;;;;8.93;2.20;;;19.20;49.30;;;;;;5040898;28;20048;-49
2022/05/21 10:26:24;;;;;;;12.60;2.10;;;19.20;49.90;;;;;;5041541;28;20061;-50
2022/05/21 10:29:06;;;;;;;11.05;2.15;;;19.30;49.40;;;;;;5041464;28;20068;-49
2022/05/21 10:31:43;;;;;;;10.77;2.00;;;19.20;48.90;;;;;;5040729;28;20060;-47
2022/05/21 10:34:29;;;;;;;7.80;2.20;;;19.30;49.20;;;;;;5040867;28;20476;-48
2022/05/21 10:37:09;;;;;;;7.18;1.90;;;19.20;49.70;;;;;;5041048;28;20060;-49
2022/05/21 10:40:09;;;;;;;7.03;1.88;;;19.20;49.40;;;;;;5041401;28;20049;-47
2022/05/21 10:42:50;;;;;;;12.52;2.15;;;19.20;49.70;;;;;;5042091;28;20057;-49
2022/05/21 10:45:23;;;;;;;8.82;2.25;;;19.30;49.90;;;;;;5043250;28;20056;-49
2022/05/21 10:48:20;;;;;;;8.23;1.85;;;19.40;50.10;;;;;;5040801;28;20060;-50
2022/05/21 10:50:54;;;;;;;7.93;1.73;;;19.50;49.70;;;;;;5039334;28;20056;-49
2022/05/21 10:53:45;;;;;;;5.65;1.30;;;19.60;48.90;;;;;;5041267;28;20056;-50
2022/05/21 10:56:36;;;;;;;7.57;1.90;;;19.70;49.00;;;;;;5041305;28;20393;-52
2022/05/21 10:59:18;;;;;;;9.88;1.48;;;19.70;47.80;;;;;;5042583;28;20068;-47
2022/05/21 11:01:57;;;;;;;12.35;2.33;;;19.80;47.20;;;;;;5042160;28;20053;-50
2022/05/21 11:04:40;;;;;;;6.72;1.70;;;19.80;47.20;;;;;;5042277;28;20061;-45
2022/05/21 11:07:29;;;;;;;8.60;1.95;;;19.80;46.90;;;;;;5040947;28;20060;-51
2022/05/21 11:10:05;;;;;;;6.68;1.80;;;19.80;46.70;;;;;;5042078;28;20053;-50
2022/05/21 11:12:43;;;;;;;4.30;1.65;;;19.80;46.40;;;;;;5041249;28;20056;-47
2022/05/21 11:15:17;;;;;;;6.25;1.95;;;19.80;46.70;;;;;;5041384;28;20697;-51
2022/05/21 11:17:53;;;;;;;10.25;1.75;;;19.80;46.90;;;;;;5040067;28;20052;-52
2022/05/21 11:20:24;;;;;;;8.23;1.52;;;19.90;48.20;;;;;;5041887;28;20504;-49
2022/05/21 11:22:58;;;;;;;4.75;1.40;;;19.90;46.90;;;;;;5050448;28;20055;-48
2022/05/21 11:25:32;;;;;;;5.25;1.73;;;20.00;46.90;;;;;;5063786;28;20496;-48
2022/05/21 11:28:16;;;;;;;6.75;1.92;;;20.00;47.20;;;;;;5058299;28;20052;-48
2022/05/21 11:30:43;;;;;;;10.13;2.40;;;20.10;46.60;;;;;;5060926;28;20060;-50
2022/05/21 13:26:38;;;;;;;6.18;1.42;;;22.10;40.60;;;;;;5217620;23;20050;-86
2022/05/21 13:29:17;;;;;;;4.85;1.40;;;22.10;39.80;;;;;;4972013;28;20058;-87
2022/05/21 13:31:46;;;;;;;6.47;1.52;;;22.10;40.00;;;;;;4967195;28;20625;-89
2022/05/21 13:34:19;;;;;;;4.82;1.45;;;22.10;41.00;;;;;;4967713;28;20051;-89
2022/05/21 13:36:51;;;;;;;11.63;1.92;;;22.00;38.80;;;;;;4968523;28;20877;-87
2022/05/21 13:39:25;;;;;;;7.30;1.65;;;21.90;38.40;;;;;;4971426;28;20051;-88
2022/05/21 13:41:55;;;;;;;8.02;2.28;;;21.70;39.70;;;;;;4968936;28;20054;-87
2022/05/21 13:44:25;;;;;;;5.05;1.63;;;21.60;39.20;;;;;;4960805;28;20074;-88
2022/05/21 13:46:56;;;;;;;7.75;2.28;;;21.50;39.60;;;;;;4958248;28;20834;-87
2022/05/21 13:49:30;;;;;;;6.05;2.03;;;21.40;39.80;;;;;;4960051;28;20548;-87
2022/05/21 13:51:59;;;;;;;6.90;1.83;;;21.30;40.30;;;;;;4954413;28;20054;-87
2022/05/21 13:54:30;;;;;;;9.30;1.90;;;21.20;40.10;;;;;;4956405;28;20046;-87
2022/05/21 13:57:11;;;;;;;6.75;1.83;;;21.20;38.90;;;;;;4964205;28;20054;-86
2022/05/21 13:59:50;;;;;;;6.82;1.55;;;21.20;39.40;;;;;;4960035;28;20049;-87
2022/05/21 14:02:27;;;;;;;9.10;2.05;;;21.20;40.30;;;;;;4958168;28;20070;-87
2022/05/21 14:04:54;;;;;;;7.63;1.80;;;21.20;39.80;;;;;;4961069;28;20058;-87
2022/05/21 14:07:25;;;;;;;9.52;2.13;;;21.20;40.70;;;;;;4967802;28;20066;-87
2022/05/21 14:09:57;;;;;;;6.05;1.83;;;21.20;40.30;;;;;;4958805;28;20065;-87
2022/05/21 14:12:39;;;;;;;5.57;1.52;;;21.20;40.40;;;;;;4959777;28;20050;-88
2022/05/21 14:15:12;;;;;;;5.78;2.17;;;21.30;40.80;;;;;;4959748;28;20479;-87
2022/05/21 14:17:42;;;;;;;8.07;1.70;;;21.30;41.10;;;;;;4955894;28;20061;-88
2022/05/21 14:20:26;;;;;;;4.88;1.85;;;21.40;41.00;;;;;;4968503;28;20062;-88
2022/05/21 14:22:54;;;;;;;7.15;1.65;;;21.50;41.20;;;;;;4973605;28;20411;-87
2022/05/21 14:25:33;;;;;;;7.15;1.65;;;21.50;39.60;;;;;;4965904;28;20418;-87
2022/05/21 14:28:07;;;;;;;4.60;1.52;;;21.60;40.20;;;;;;4954807;28;20054;-87
2022/05/21 14:30:38;;;;;;;7.13;1.92;;;21.60;39.20;;;;;;4957885;28;20054;-87
2022/05/21 14:33:21;;;;;;;5.57;1.40;;;21.60;39.20;;;;;;4958180;28;20070;-87
2022/05/21 14:35:49;;;;;;;7.00;1.85;;;21.70;40.00;;;;;;4960540;28;20063;-88
2022/05/21 14:38:20;;;;;;;6.07;1.67;;;21.70;39.90;;;;;;4966382;28;20058;-88
2022/05/21 14:40:56;;;;;;;4.45;1.52;;;21.80;39.40;;;;;;4961493;28;20494;-87
2022/05/21 14:43:36;;;;;;;5.88;2.00;;;21.80;40.10;;;;;;4965093;23;20051;-48
2022/05/21 14:46:03;;;;;;;7.82;1.88;;;21.90;40.10;;;;;;4942188;28;20400;-48
2022/05/21 14:48:30;;;;;;;6.47;2.08;;;21.90;40.40;;;;;;4940889;28;20055;-48
2022/05/21 14:53:47;;;;;;;6.10;1.55;;;22.00;40.60;;;;;;4947599;28;20058;-46
2022/05/21 14:56:23;;;;;;;6.03;1.58;;;22.10;38.70;;;;;;4935748;28;20486;-46
2022/05/21 14:58:53;;;;;;;5.15;1.42;;;22.10;39.80;;;;;;4937550;28;20055;-48
2022/05/21 15:01:21;;;;;;;6.93;2.45;;;22.10;39.80;;;;;;4937454;28;20063;-51
2022/05/21 15:03:48;;;;;;;6.85;2.17;;;22.10;39.80;;;;;;4941492;28;20144;-49
2022/05/21 15:06:19;;;;;;;3.50;2.15;;;22.20;38.90;;;;;;4941960;28;20078;-46
2022/05/21 15:08:47;;;;;;;5.32;1.90;;;22.20;39.50;;;;;;4941902;28;20055;-51
2022/05/21 15:11:15;;;;;;;8.30;3.45;;;22.30;39.00;;;;;;4937660;28;20063;-47
2022/05/21 15:13:42;;;;;;;8.85;2.97;;;22.30;38.90;;;;;;4938536;28;20078;-46
2022/05/21 15:16:11;;;;;;;5.85;2.38;;;22.30;39.00;;;;;;4940875;28;20054;-47
2022/05/21 15:18:38;;;;;;;7.43;1.60;;;22.40;38.40;;;;;;4939400;28;20647;-49
2022/05/21 15:21:19;;;;;;;7.05;2.00;;;22.30;39.20;;;;;;4939748;28;20059;-49
2022/05/21 15:23:47;;;;;;;10.10;2.60;;;22.30;37.80;;;;;;4938359;28;20055;-50
2022/05/21 15:26:14;;;;;;;7.43;1.63;;;22.20;38.00;;;;;;4939891;28;20487;-49
2022/05/21 15:28:42;;;;;;;7.18;1.33;;;22.10;38.80;;;;;;4941080;28;20494;-51
2022/05/21 15:31:12;;;;;;;10.73;1.60;;;22.10;39.20;;;;;;4939978;28;20514;-51
2022/05/21 15:33:39;;;;;;;4.82;1.23;;;22.00;39.10;;;;;;4937702;28;20526;-47